Alpha, Ohio
Current Conditions -  °F | °C
As of 11:58 PM on Saturday 25 Oct 2014 (Local Time) from KFFO Reporting Station
Clear Clear  
Wind Chill: 58°   Ceiling: Unl
Heat Index: 58°   Visibility: 10mi
Dew Point: 46°   Wind: 8mph
Humidity: 65%   Direction: 270°W
Pressure: 29.91"   Gusts: NA
Location:  39.71°N, 84.02°W
Report Text: KFFO 260358Z AUTO 27007KT 10SM CLR 14/08 A2991 RMK AO2 SLP130 T01420076
Loading
Personal Weather Stations






























Interactive Weather Map
Tropical Storm Tracking
New forecast layout! Learn more

10-Day Weather Forecast

Advertisements
Track Severe Weather on mobile